sensor_id;sensor_type;location;lat;lon;timestamp;P1;durP1;ratioP1;P2;durP2;ratioP2
71290;SDS011;59073;51.994;4.448;2024-02-15T00:01:51;2.45;;;2.38;;
71290;SDS011;59073;51.994;4.448;2024-02-15T00:04:16;2.58;;;2.52;;
71290;SDS011;59073;51.994;4.448;2024-02-15T00:06:42;2.91;;;2.85;;
71290;SDS011;59073;51.994;4.448;2024-02-15T00:09:08;3.44;;;3.35;;
71290;SDS011;59073;51.994;4.448;2024-02-15T00:11:33;3.87;;;3.77;;
71290;SDS011;59073;51.994;4.448;2024-02-15T00:13:59;3.42;;;3.36;;
71290;SDS011;59073;51.994;4.448;2024-02-15T00:16:25;3.11;;;3.06;;
71290;SDS011;59073;51.994;4.448;2024-02-15T00:18:52;2.67;;;2.60;;
71290;SDS011;59073;51.994;4.448;2024-02-15T00:21:20;2.70;;;2.62;;
71290;SDS011;59073;51.994;4.448;2024-02-15T00:23:48;2.55;;;2.47;;
71290;SDS011;59073;51.994;4.448;2024-02-15T00:26:14;2.20;;;2.14;;
71290;SDS011;59073;51.994;4.448;2024-02-15T00:28:42;2.44;;;2.35;;
71290;SDS011;59073;51.994;4.448;2024-02-15T00:31:08;2.71;;;2.60;;
71290;SDS011;59073;51.994;4.448;2024-02-15T00:33:33;2.52;;;2.42;;
71290;SDS011;59073;51.994;4.448;2024-02-15T00:36:02;3.03;;;2.88;;
71290;SDS011;59073;51.994;4.448;2024-02-15T00:38:29;3.05;;;2.92;;
71290;SDS011;59073;51.994;4.448;2024-02-15T00:40:54;3.23;;;3.11;;
71290;SDS011;59073;51.994;4.448;2024-02-15T00:43:20;2.98;;;2.90;;
71290;SDS011;59073;51.994;4.448;2024-02-15T00:45:45;3.65;;;3.62;;
71290;SDS011;59073;51.994;4.448;2024-02-15T00:48:11;3.46;;;3.46;;
71290;SDS011;59073;51.994;4.448;2024-02-15T00:50:37;3.88;;;3.87;;
71290;SDS011;59073;51.994;4.448;2024-02-15T00:53:03;3.99;;;3.99;;
71290;SDS011;59073;51.994;4.448;2024-02-15T00:55:28;4.36;;;4.36;;
71290;SDS011;59073;51.994;4.448;2024-02-15T00:57:54;3.86;;;3.86;;
71290;SDS011;59073;51.994;4.448;2024-02-15T01:00:19;4.20;;;4.20;;
71290;SDS011;59073;51.994;4.448;2024-02-15T01:02:45;4.00;;;3.99;;
71290;SDS011;59073;51.994;4.448;2024-02-15T01:05:11;4.12;;;4.11;;
71290;SDS011;59073;51.994;4.448;2024-02-15T01:07:37;4.23;;;4.21;;
71290;SDS011;59073;51.994;4.448;2024-02-15T01:10:02;4.23;;;4.20;;
71290;SDS011;59073;51.994;4.448;2024-02-15T01:12:28;4.08;;;4.04;;
71290;SDS011;59073;51.994;4.448;2024-02-15T01:14:54;4.01;;;4.00;;
71290;SDS011;59073;51.994;4.448;2024-02-15T01:17:21;3.51;;;3.49;;
71290;SDS011;59073;51.994;4.448;2024-02-15T01:19:47;4.15;;;4.14;;
71290;SDS011;59073;51.994;4.448;2024-02-15T01:22:12;4.14;;;4.14;;
71290;SDS011;59073;51.994;4.448;2024-02-15T01:24:38;4.13;;;4.13;;
71290;SDS011;59073;51.994;4.448;2024-02-15T01:27:03;3.98;;;3.98;;
71290;SDS011;59073;51.994;4.448;2024-02-15T01:29:29;4.01;;;4.01;;
71290;SDS011;59073;51.994;4.448;2024-02-15T01:31:54;4.00;;;3.99;;
71290;SDS011;59073;51.994;4.448;2024-02-15T01:34:21;3.87;;;3.84;;
71290;SDS011;59073;51.994;4.448;2024-02-15T01:36:47;4.02;;;3.99;;
71290;SDS011;59073;51.994;4.448;2024-02-15T01:39:13;4.06;;;4.00;;
71290;SDS011;59073;51.994;4.448;2024-02-15T01:41:39;4.07;;;4.04;;
71290;SDS011;59073;51.994;4.448;2024-02-15T01:44:04;3.79;;;3.76;;
71290;SDS011;59073;51.994;4.448;2024-02-15T01:46:31;3.81;;;3.77;;
71290;SDS011;59073;51.994;4.448;2024-02-15T01:48:58;3.72;;;3.70;;
71290;SDS011;59073;51.994;4.448;2024-02-15T01:51:23;3.62;;;3.61;;
71290;SDS011;59073;51.994;4.448;2024-02-15T01:53:52;3.46;;;3.45;;
71290;SDS011;59073;51.994;4.448;2024-02-15T01:56:19;3.51;;;3.49;;
71290;SDS011;59073;51.994;4.448;2024-02-15T01:58:48;3.72;;;3.69;;
71290;SDS011;59073;51.994;4.448;2024-02-15T02:01:14;3.77;;;3.71;;
71290;SDS011;59073;51.994;4.448;2024-02-15T02:03:40;3.65;;;3.61;;
71290;SDS011;59073;51.994;4.448;2024-02-15T02:06:06;3.57;;;3.56;;
71290;SDS011;59073;51.994;4.448;2024-02-15T02:08:33;3.51;;;3.49;;
71290;SDS011;59073;51.994;4.448;2024-02-15T02:10:58;3.39;;;3.39;;
71290;SDS011;59073;51.994;4.448;2024-02-15T02:13:24;3.21;;;3.20;;
71290;SDS011;59073;51.994;4.448;2024-02-15T02:15:49;3.30;;;3.28;;
71290;SDS011;59073;51.994;4.448;2024-02-15T02:18:16;3.50;;;3.49;;
71290;SDS011;59073;51.994;4.448;2024-02-15T02:20:42;3.63;;;3.62;;
71290;SDS011;59073;51.994;4.448;2024-02-15T02:23:09;3.40;;;3.33;;
71290;SDS011;59073;51.994;4.448;2024-02-15T02:25:40;3.88;;;3.77;;
71290;SDS011;59073;51.994;4.448;2024-02-15T02:28:08;3.37;;;3.34;;
71290;SDS011;59073;51.994;4.448;2024-02-15T02:30:35;3.05;;;3.05;;
71290;SDS011;59073;51.994;4.448;2024-02-15T02:33:01;3.38;;;3.38;;
71290;SDS011;59073;51.994;4.448;2024-02-15T02:35:26;3.26;;;3.26;;
71290;SDS011;59073;51.994;4.448;2024-02-15T02:37:53;3.33;;;3.32;;
71290;SDS011;59073;51.994;4.448;2024-02-15T02:40:18;3.37;;;3.37;;
71290;SDS011;59073;51.994;4.448;2024-02-15T02:42:52;3.36;;;3.34;;
71290;SDS011;59073;51.994;4.448;2024-02-15T02:45:21;3.25;;;3.23;;
71290;SDS011;59073;51.994;4.448;2024-02-15T02:47:50;3.42;;;3.39;;
71290;SDS011;59073;51.994;4.448;2024-02-15T02:50:17;3.66;;;3.62;;
71290;SDS011;59073;51.994;4.448;2024-02-15T02:52:43;3.31;;;3.27;;
71290;SDS011;59073;51.994;4.448;2024-02-15T02:55:09;3.17;;;3.12;;
71290;SDS011;59073;51.994;4.448;2024-02-15T02:57:36;3.35;;;3.31;;
71290;SDS011;59073;51.994;4.448;2024-02-15T03:00:06;3.12;;;3.07;;
71290;SDS011;59073;51.994;4.448;2024-02-15T03:02:41;3.63;;;3.56;;
71290;SDS011;59073;51.994;4.448;2024-02-15T03:05:08;3.29;;;3.24;;
71290;SDS011;59073;51.994;4.448;2024-02-15T03:07:36;3.15;;;3.10;;
71290;SDS011;59073;51.994;4.448;2024-02-15T03:10:02;3.19;;;3.14;;
71290;SDS011;59073;51.994;4.448;2024-02-15T03:12:29;3.16;;;3.12;;
71290;SDS011;59073;51.994;4.448;2024-02-15T03:14:55;2.97;;;2.94;;
71290;SDS011;59073;51.994;4.448;2024-02-15T03:17:22;3.29;;;3.25;;
71290;SDS011;59073;51.994;4.448;2024-02-15T03:19:48;2.94;;;2.92;;
71290;SDS011;59073;51.994;4.448;2024-02-15T03:22:14;3.31;;;3.28;;
71290;SDS011;59073;51.994;4.448;2024-02-15T03:24:40;3.21;;;3.18;;
71290;SDS011;59073;51.994;4.448;2024-02-15T03:27:06;3.34;;;3.31;;
71290;SDS011;59073;51.994;4.448;2024-02-15T03:29:31;3.87;;;3.83;;
71290;SDS011;59073;51.994;4.448;2024-02-15T03:31:59;3.40;;;3.38;;
71290;SDS011;59073;51.994;4.448;2024-02-15T03:34:24;3.57;;;3.53;;
71290;SDS011;59073;51.994;4.448;2024-02-15T03:36:50;3.42;;;3.40;;
71290;SDS011;59073;51.994;4.448;2024-02-15T03:39:19;3.63;;;3.63;;
71290;SDS011;59073;51.994;4.448;2024-02-15T03:41:45;3.74;;;3.66;;
71290;SDS011;59073;51.994;4.448;2024-02-15T03:44:13;3.65;;;3.57;;
71290;SDS011;59073;51.994;4.448;2024-02-15T03:46:39;3.48;;;3.44;;
71290;SDS011;59073;51.994;4.448;2024-02-15T03:49:05;3.26;;;3.24;;
71290;SDS011;59073;51.994;4.448;2024-02-15T03:51:33;3.26;;;3.26;;
71290;SDS011;59073;51.994;4.448;2024-02-15T03:53:59;3.40;;;3.39;;
71290;SDS011;59073;51.994;4.448;2024-02-15T03:56:25;3.31;;;3.31;;
71290;SDS011;59073;51.994;4.448;2024-02-15T03:58:51;3.64;;;3.63;;
71290;SDS011;59073;51.994;4.448;2024-02-15T04:01:16;3.32;;;3.32;;
71290;SDS011;59073;51.994;4.448;2024-02-15T04:03:42;3.32;;;3.32;;
71290;SDS011;59073;51.994;4.448;2024-02-15T04:06:08;3.32;;;3.32;;
71290;SDS011;59073;51.994;4.448;2024-02-15T04:08:35;3.46;;;3.46;;
71290;SDS011;59073;51.994;4.448;2024-02-15T04:11:04;3.41;;;3.41;;
71290;SDS011;59073;51.994;4.448;2024-02-15T04:13:35;3.36;;;3.36;;
71290;SDS011;59073;51.994;4.448;2024-02-15T04:16:00;3.20;;;3.20;;
71290;SDS011;59073;51.994;4.448;2024-02-15T04:18:26;3.44;;;3.44;;
71290;SDS011;59073;51.994;4.448;2024-02-15T04:20:51;3.48;;;3.48;;
71290;SDS011;59073;51.994;4.448;2024-02-15T04:23:17;3.84;;;3.84;;
71290;SDS011;59073;51.994;4.448;2024-02-15T04:25:44;3.74;;;3.74;;
71290;SDS011;59073;51.994;4.448;2024-02-15T04:28:11;3.73;;;3.73;;
71290;SDS011;59073;51.994;4.448;2024-02-15T04:30:37;4.06;;;4.06;;
71290;SDS011;59073;51.994;4.448;2024-02-15T04:33:04;3.99;;;3.99;;
71290;SDS011;59073;51.994;4.448;2024-02-15T04:35:30;4.16;;;4.16;;
71290;SDS011;59073;51.994;4.448;2024-02-15T04:37:56;4.01;;;4.01;;
71290;SDS011;59073;51.994;4.448;2024-02-15T04:40:22;4.41;;;4.41;;
71290;SDS011;59073;51.994;4.448;2024-02-15T04:42:48;4.73;;;4.73;;
71290;SDS011;59073;51.994;4.448;2024-02-15T04:45:14;5.25;;;5.25;;
71290;SDS011;59073;51.994;4.448;2024-02-15T04:47:41;5.36;;;5.36;;
71290;SDS011;59073;51.994;4.448;2024-02-15T04:50:07;5.27;;;5.27;;
71290;SDS011;59073;51.994;4.448;2024-02-15T04:52:34;5.56;;;5.56;;
71290;SDS011;59073;51.994;4.448;2024-02-15T04:55:00;5.22;;;5.22;;
71290;SDS011;59073;51.994;4.448;2024-02-15T04:57:27;5.56;;;5.56;;
71290;SDS011;59073;51.994;4.448;2024-02-15T04:59:56;5.44;;;5.44;;
71290;SDS011;59073;51.994;4.448;2024-02-15T05:02:23;5.58;;;5.57;;
71290;SDS011;59073;51.994;4.448;2024-02-15T05:04:52;5.37;;;5.37;;
71290;SDS011;59073;51.994;4.448;2024-02-15T05:07:22;5.21;;;5.21;;
71290;SDS011;59073;51.994;4.448;2024-02-15T05:09:51;5.19;;;5.19;;
71290;SDS011;59073;51.994;4.448;2024-02-15T05:12:22;5.21;;;5.21;;
71290;SDS011;59073;51.994;4.448;2024-02-15T05:14:52;5.20;;;5.20;;
71290;SDS011;59073;51.994;4.448;2024-02-15T05:17:18;5.30;;;5.30;;
71290;SDS011;59073;51.994;4.448;2024-02-15T05:19:44;4.83;;;4.83;;
71290;SDS011;59073;51.994;4.448;2024-02-15T05:22:10;5.17;;;5.16;;
71290;SDS011;59073;51.994;4.448;2024-02-15T05:24:36;4.76;;;4.74;;
71290;SDS011;59073;51.994;4.448;2024-02-15T05:27:03;4.84;;;4.83;;
71290;SDS011;59073;51.994;4.448;2024-02-15T05:29:29;4.97;;;4.97;;
71290;SDS011;59073;51.994;4.448;2024-02-15T05:31:59;4.75;;;4.75;;
71290;SDS011;59073;51.994;4.448;2024-02-15T05:34:25;4.32;;;4.32;;
71290;SDS011;59073;51.994;4.448;2024-02-15T05:36:50;4.78;;;4.78;;
71290;SDS011;59073;51.994;4.448;2024-02-15T05:39:16;4.09;;;4.09;;
71290;SDS011;59073;51.994;4.448;2024-02-15T05:41:45;4.17;;;4.16;;
71290;SDS011;59073;51.994;4.448;2024-02-15T05:44:11;3.95;;;3.95;;
71290;SDS011;59073;51.994;4.448;2024-02-15T05:46:36;4.40;;;4.40;;
71290;SDS011;59073;51.994;4.448;2024-02-15T05:49:05;4.45;;;4.45;;
71290;SDS011;59073;51.994;4.448;2024-02-15T05:51:31;4.23;;;4.23;;
71290;SDS011;59073;51.994;4.448;2024-02-15T05:53:57;4.15;;;4.15;;
71290;SDS011;59073;51.994;4.448;2024-02-15T05:56:25;3.60;;;3.60;;
71290;SDS011;59073;51.994;4.448;2024-02-15T05:58:51;3.81;;;3.81;;
71290;SDS011;59073;51.994;4.448;2024-02-15T06:01:17;3.49;;;3.49;;
71290;SDS011;59073;51.994;4.448;2024-02-15T06:03:43;3.33;;;3.33;;
71290;SDS011;59073;51.994;4.448;2024-02-15T06:06:10;3.33;;;3.33;;
71290;SDS011;59073;51.994;4.448;2024-02-15T06:08:36;3.01;;;3.01;;
71290;SDS011;59073;51.994;4.448;2024-02-15T06:11:03;2.91;;;2.91;;
71290;SDS011;59073;51.994;4.448;2024-02-15T06:13:30;2.51;;;2.51;;
71290;SDS011;59073;51.994;4.448;2024-02-15T06:15:56;2.50;;;2.50;;
71290;SDS011;59073;51.994;4.448;2024-02-15T06:18:26;2.78;;;2.78;;
71290;SDS011;59073;51.994;4.448;2024-02-15T06:20:57;2.49;;;2.49;;
71290;SDS011;59073;51.994;4.448;2024-02-15T06:23:25;2.89;;;2.89;;
71290;SDS011;59073;51.994;4.448;2024-02-15T06:25:52;2.54;;;2.54;;
71290;SDS011;59073;51.994;4.448;2024-02-15T06:28:19;2.38;;;2.38;;
71290;SDS011;59073;51.994;4.448;2024-02-15T06:31:04;2.88;;;2.88;;
71290;SDS011;59073;51.994;4.448;2024-02-15T06:33:48;3.43;;;3.43;;
71290;SDS011;59073;51.994;4.448;2024-02-15T06:36:32;3.80;;;3.80;;
71290;SDS011;59073;51.994;4.448;2024-02-15T06:39:16;3.98;;;3.98;;
71290;SDS011;59073;51.994;4.448;2024-02-15T06:42:00;4.08;;;4.06;;
71290;SDS011;59073;51.994;4.448;2024-02-15T06:44:26;4.01;;;4.01;;
71290;SDS011;59073;51.994;4.448;2024-02-15T06:46:52;3.88;;;3.88;;
71290;SDS011;59073;51.994;4.448;2024-02-15T06:49:17;3.52;;;3.52;;
71290;SDS011;59073;51.994;4.448;2024-02-15T06:51:43;3.44;;;3.43;;
71290;SDS011;59073;51.994;4.448;2024-02-15T06:54:08;3.20;;;3.20;;
71290;SDS011;59073;51.994;4.448;2024-02-15T06:56:38;3.45;;;3.45;;
71290;SDS011;59073;51.994;4.448;2024-02-15T06:59:04;3.39;;;3.39;;
71290;SDS011;59073;51.994;4.448;2024-02-15T07:01:30;3.49;;;3.49;;
71290;SDS011;59073;51.994;4.448;2024-02-15T07:03:59;3.52;;;3.52;;
71290;SDS011;59073;51.994;4.448;2024-02-15T07:06:25;3.79;;;3.79;;
71290;SDS011;59073;51.994;4.448;2024-02-15T07:08:52;3.93;;;3.93;;
71290;SDS011;59073;51.994;4.448;2024-02-15T07:11:19;4.15;;;4.15;;
71290;SDS011;59073;51.994;4.448;2024-02-15T07:13:45;4.18;;;4.18;;
71290;SDS011;59073;51.994;4.448;2024-02-15T07:16:11;3.87;;;3.87;;
71290;SDS011;59073;51.994;4.448;2024-02-15T07:18:36;4.19;;;4.19;;
71290;SDS011;59073;51.994;4.448;2024-02-15T07:21:02;4.08;;;4.08;;
71290;SDS011;59073;51.994;4.448;2024-02-15T07:23:33;4.26;;;4.26;;
71290;SDS011;59073;51.994;4.448;2024-02-15T07:25:59;3.92;;;3.92;;
71290;SDS011;59073;51.994;4.448;2024-02-15T07:28:25;4.11;;;4.11;;
71290;SDS011;59073;51.994;4.448;2024-02-15T07:30:54;4.44;;;4.44;;
71290;SDS011;59073;51.994;4.448;2024-02-15T07:33:20;4.21;;;4.21;;
71290;SDS011;59073;51.994;4.448;2024-02-15T07:35:47;3.75;;;3.75;;
71290;SDS011;59073;51.994;4.448;2024-02-15T07:38:16;3.98;;;3.98;;
71290;SDS011;59073;51.994;4.448;2024-02-15T07:40:42;3.95;;;3.95;;
71290;SDS011;59073;51.994;4.448;2024-02-15T07:43:07;4.09;;;4.09;;
71290;SDS011;59073;51.994;4.448;2024-02-15T07:45:33;3.83;;;3.83;;
71290;SDS011;59073;51.994;4.448;2024-02-15T07:48:03;3.53;;;3.52;;
71290;SDS011;59073;51.994;4.448;2024-02-15T07:50:30;3.37;;;3.32;;
71290;SDS011;59073;51.994;4.448;2024-02-15T07:52:56;3.93;;;3.91;;
71290;SDS011;59073;51.994;4.448;2024-02-15T07:55:22;3.71;;;3.71;;
71290;SDS011;59073;51.994;4.448;2024-02-15T07:57:52;3.49;;;3.49;;
71290;SDS011;59073;51.994;4.448;2024-02-15T08:00:18;3.17;;;3.17;;
71290;SDS011;59073;51.994;4.448;2024-02-15T08:02:44;3.18;;;3.18;;
71290;SDS011;59073;51.994;4.448;2024-02-15T08:05:10;2.91;;;2.91;;
71290;SDS011;59073;51.994;4.448;2024-02-15T08:07:37;3.10;;;3.10;;
71290;SDS011;59073;51.994;4.448;2024-02-15T08:10:06;3.36;;;3.35;;
71290;SDS011;59073;51.994;4.448;2024-02-15T08:12:38;3.34;;;3.34;;
71290;SDS011;59073;51.994;4.448;2024-02-15T08:15:10;3.31;;;3.31;;
71290;SDS011;59073;51.994;4.448;2024-02-15T08:17:39;3.32;;;3.32;;
71290;SDS011;59073;51.994;4.448;2024-02-15T08:20:11;3.30;;;3.30;;
71290;SDS011;59073;51.994;4.448;2024-02-15T08:22:38;3.54;;;3.54;;
71290;SDS011;59073;51.994;4.448;2024-02-15T08:25:06;3.52;;;3.52;;
71290;SDS011;59073;51.994;4.448;2024-02-15T08:27:31;3.65;;;3.65;;
71290;SDS011;59073;51.994;4.448;2024-02-15T08:29:59;3.78;;;3.78;;
71290;SDS011;59073;51.994;4.448;2024-02-15T08:32:24;3.92;;;3.92;;
71290;SDS011;59073;51.994;4.448;2024-02-15T08:34:50;3.65;;;3.65;;
71290;SDS011;59073;51.994;4.448;2024-02-15T08:37:15;3.77;;;3.77;;
71290;SDS011;59073;51.994;4.448;2024-02-15T08:39:41;3.88;;;3.88;;
71290;SDS011;59073;51.994;4.448;2024-02-15T08:42:09;4.10;;;4.10;;
71290;SDS011;59073;51.994;4.448;2024-02-15T08:44:36;4.18;;;4.18;;
71290;SDS011;59073;51.994;4.448;2024-02-15T08:47:01;3.88;;;3.88;;
71290;SDS011;59073;51.994;4.448;2024-02-15T08:49:27;3.67;;;3.67;;
71290;SDS011;59073;51.994;4.448;2024-02-15T08:51:55;3.59;;;3.59;;
71290;SDS011;59073;51.994;4.448;2024-02-15T08:54:21;3.46;;;3.46;;
71290;SDS011;59073;51.994;4.448;2024-02-15T08:56:46;3.30;;;3.29;;
71290;SDS011;59073;51.994;4.448;2024-02-15T08:59:12;3.39;;;3.39;;
71290;SDS011;59073;51.994;4.448;2024-02-15T09:01:40;3.41;;;3.40;;
71290;SDS011;59073;51.994;4.448;2024-02-15T09:04:06;3.37;;;3.35;;
71290;SDS011;59073;51.994;4.448;2024-02-15T09:06:31;3.28;;;3.28;;
71290;SDS011;59073;51.994;4.448;2024-02-15T09:08:57;2.99;;;2.98;;
71290;SDS011;59073;51.994;4.448;2024-02-15T09:11:22;3.05;;;3.04;;
71290;SDS011;59073;51.994;4.448;2024-02-15T09:13:53;3.18;;;3.16;;
71290;SDS011;59073;51.994;4.448;2024-02-15T09:16:20;3.30;;;3.28;;
71290;SDS011;59073;51.994;4.448;2024-02-15T09:18:47;3.60;;;3.53;;
71290;SDS011;59073;51.994;4.448;2024-02-15T09:21:12;3.54;;;3.46;;
71290;SDS011;59073;51.994;4.448;2024-02-15T09:23:38;3.36;;;3.33;;
71290;SDS011;59073;51.994;4.448;2024-02-15T09:26:04;3.32;;;3.32;;
71290;SDS011;59073;51.994;4.448;2024-02-15T09:28:29;3.63;;;3.63;;
71290;SDS011;59073;51.994;4.448;2024-02-15T09:30:56;3.46;;;3.45;;
71290;SDS011;59073;51.994;4.448;2024-02-15T09:33:24;3.39;;;3.37;;
71290;SDS011;59073;51.994;4.448;2024-02-15T09:35:51;3.42;;;3.40;;
71290;SDS011;59073;51.994;4.448;2024-02-15T09:38:16;3.60;;;3.56;;
71290;SDS011;59073;51.994;4.448;2024-02-15T09:40:42;3.59;;;3.56;;
71290;SDS011;59073;51.994;4.448;2024-02-15T09:43:09;3.28;;;3.24;;
71290;SDS011;59073;51.994;4.448;2024-02-15T09:45:38;3.71;;;3.69;;
71290;SDS011;59073;51.994;4.448;2024-02-15T09:48:05;3.67;;;3.67;;
71290;SDS011;59073;51.994;4.448;2024-02-15T09:50:34;3.30;;;3.30;;
71290;SDS011;59073;51.994;4.448;2024-02-15T09:53:00;3.64;;;3.64;;
71290;SDS011;59073;51.994;4.448;2024-02-15T09:55:31;3.56;;;3.55;;
71290;SDS011;59073;51.994;4.448;2024-02-15T09:57:58;3.91;;;3.91;;
71290;SDS011;59073;51.994;4.448;2024-02-15T10:00:25;3.31;;;3.31;;
71290;SDS011;59073;51.994;4.448;2024-02-15T10:02:50;3.54;;;3.54;;
71290;SDS011;59073;51.994;4.448;2024-02-15T10:05:21;3.62;;;3.62;;
71290;SDS011;59073;51.994;4.448;2024-02-15T10:07:48;3.52;;;3.50;;
71290;SDS011;59073;51.994;4.448;2024-02-15T10:10:17;3.44;;;3.44;;
71290;SDS011;59073;51.994;4.448;2024-02-15T10:12:44;3.37;;;3.36;;
71290;SDS011;59073;51.994;4.448;2024-02-15T10:17:57;3.42;;;3.41;;
71290;SDS011;59073;51.994;4.448;2024-02-15T10:20:24;3.90;;;3.89;;
71290;SDS011;59073;51.994;4.448;2024-02-15T10:22:53;3.40;;;3.40;;
71290;SDS011;59073;51.994;4.448;2024-02-15T10:25:37;3.24;;;3.24;;
71290;SDS011;59073;51.994;4.448;2024-02-15T10:28:04;3.54;;;3.54;;
71290;SDS011;59073;51.994;4.448;2024-02-15T10:30:33;3.73;;;3.73;;
71290;SDS011;59073;51.994;4.448;2024-02-15T10:32:59;3.32;;;3.32;;
71290;SDS011;59073;51.994;4.448;2024-02-15T10:35:26;3.60;;;3.58;;
71290;SDS011;59073;51.994;4.448;2024-02-15T10:37:51;3.56;;;3.48;;
71290;SDS011;59073;51.994;4.448;2024-02-15T10:40:18;3.54;;;3.47;;
71290;SDS011;59073;51.994;4.448;2024-02-15T10:42:46;3.41;;;3.37;;
71290;SDS011;59073;51.994;4.448;2024-02-15T10:45:13;3.50;;;3.45;;
71290;SDS011;59073;51.994;4.448;2024-02-15T10:47:45;2.88;;;2.87;;
71290;SDS011;59073;51.994;4.448;2024-02-15T10:50:14;3.00;;;3.00;;
71290;SDS011;59073;51.994;4.448;2024-02-15T10:52:43;2.61;;;2.61;;
71290;SDS011;59073;51.994;4.448;2024-02-15T10:55:21;2.78;;;2.78;;
71290;SDS011;59073;51.994;4.448;2024-02-15T10:58:05;2.77;;;2.77;;
71290;SDS011;59073;51.994;4.448;2024-02-15T11:00:33;2.89;;;2.89;;
71290;SDS011;59073;51.994;4.448;2024-02-15T11:03:05;2.94;;;2.94;;
71290;SDS011;59073;51.994;4.448;2024-02-15T11:05:35;3.11;;;3.11;;
71290;SDS011;59073;51.994;4.448;2024-02-15T11:08:04;3.11;;;3.11;;
71290;SDS011;59073;51.994;4.448;2024-02-15T11:10:32;2.87;;;2.87;;
71290;SDS011;59073;51.994;4.448;2024-02-15T11:13:01;3.31;;;3.31;;
71290;SDS011;59073;51.994;4.448;2024-02-15T11:18:01;2.92;;;2.92;;
71290;SDS011;59073;51.994;4.448;2024-02-15T11:23:02;3.97;;;3.97;;
71290;SDS011;59073;51.994;4.448;2024-02-15T11:25:32;3.67;;;3.67;;
71290;SDS011;59073;51.994;4.448;2024-02-15T11:30:51;3.92;;;3.92;;
71290;SDS011;59073;51.994;4.448;2024-02-15T11:38:38;4.24;;;4.24;;
71290;SDS011;59073;51.994;4.448;2024-02-15T11:41:08;3.73;;;3.71;;
71290;SDS011;59073;51.994;4.448;2024-02-15T11:46:18;3.26;;;3.25;;
71290;SDS011;59073;51.994;4.448;2024-02-15T11:48:47;2.77;;;2.77;;
71290;SDS011;59073;51.994;4.448;2024-02-15T11:53:59;2.89;;;2.89;;
71290;SDS011;59073;51.994;4.448;2024-02-15T11:59:19;2.75;;;2.74;;
71290;SDS011;59073;51.994;4.448;2024-02-15T12:01:56;2.35;;;2.35;;
71290;SDS011;59073;51.994;4.448;2024-02-15T12:04:41;2.39;;;2.38;;
71290;SDS011;59073;51.994;4.448;2024-02-15T12:07:25;2.52;;;2.52;;
71290;SDS011;59073;51.994;4.448;2024-02-15T12:10:19;2.19;;;2.19;;
71290;SDS011;59073;51.994;4.448;2024-02-15T12:13:03;2.22;;;2.20;;
71290;SDS011;59073;51.994;4.448;2024-02-15T12:16:00;2.33;;;2.31;;
71290;SDS011;59073;51.994;4.448;2024-02-15T12:18:44;2.38;;;2.37;;
71290;SDS011;59073;51.994;4.448;2024-02-15T12:21:14;2.21;;;2.19;;
71290;SDS011;59073;51.994;4.448;2024-02-15T12:23:44;2.08;;;2.07;;
71290;SDS011;59073;51.994;4.448;2024-02-15T12:26:10;1.84;;;1.84;;
71290;SDS011;59073;51.994;4.448;2024-02-15T12:28:39;1.83;;;1.82;;
71290;SDS011;59073;51.994;4.448;2024-02-15T12:31:08;1.97;;;1.97;;
71290;SDS011;59073;51.994;4.448;2024-02-15T12:33:35;2.00;;;2.00;;
71290;SDS011;59073;51.994;4.448;2024-02-15T12:36:06;1.80;;;1.80;;
71290;SDS011;59073;51.994;4.448;2024-02-15T12:38:33;1.67;;;1.67;;
71290;SDS011;59073;51.994;4.448;2024-02-15T12:41:02;1.53;;;1.52;;
71290;SDS011;59073;51.994;4.448;2024-02-15T12:43:29;1.77;;;1.75;;
71290;SDS011;59073;51.994;4.448;2024-02-15T12:45:55;1.67;;;1.65;;
71290;SDS011;59073;51.994;4.448;2024-02-15T12:48:22;1.72;;;1.71;;
71290;SDS011;59073;51.994;4.448;2024-02-15T12:50:47;1.42;;;1.41;;
71290;SDS011;59073;51.994;4.448;2024-02-15T12:53:13;1.68;;;1.67;;
71290;SDS011;59073;51.994;4.448;2024-02-15T12:55:51;1.57;;;1.54;;
71290;SDS011;59073;51.994;4.448;2024-02-15T12:58:19;1.88;;;1.84;;
71290;SDS011;59073;51.994;4.448;2024-02-15T13:00:45;1.79;;;1.74;;
71290;SDS011;59073;51.994;4.448;2024-02-15T13:03:11;1.68;;;1.62;;
71290;SDS011;59073;51.994;4.448;2024-02-15T13:05:39;1.43;;;1.39;;
71290;SDS011;59073;51.994;4.448;2024-02-15T13:08:05;1.59;;;1.56;;
71290;SDS011;59073;51.994;4.448;2024-02-15T13:10:36;1.76;;;1.74;;
71290;SDS011;59073;51.994;4.448;2024-02-15T13:13:04;1.98;;;1.95;;
71290;SDS011;59073;51.994;4.448;2024-02-15T13:15:31;2.02;;;1.98;;
71290;SDS011;59073;51.994;4.448;2024-02-15T13:17:59;2.27;;;2.24;;
71290;SDS011;59073;51.994;4.448;2024-02-15T13:20:26;2.28;;;2.25;;
71290;SDS011;59073;51.994;4.448;2024-02-15T13:22:59;2.23;;;2.20;;
71290;SDS011;59073;51.994;4.448;2024-02-15T13:25:36;2.27;;;2.26;;
71290;SDS011;59073;51.994;4.448;2024-02-15T13:28:04;2.26;;;2.24;;
71290;SDS011;59073;51.994;4.448;2024-02-15T13:30:31;2.42;;;2.41;;
71290;SDS011;59073;51.994;4.448;2024-02-15T13:33:00;2.45;;;2.44;;
71290;SDS011;59073;51.994;4.448;2024-02-15T13:35:27;2.15;;;2.12;;
71290;SDS011;59073;51.994;4.448;2024-02-15T13:37:53;2.16;;;2.14;;
71290;SDS011;59073;51.994;4.448;2024-02-15T13:40:20;2.22;;;2.21;;
71290;SDS011;59073;51.994;4.448;2024-02-15T13:42:50;2.15;;;2.12;;
71290;SDS011;59073;51.994;4.448;2024-02-15T13:45:41;2.18;;;2.16;;
71290;SDS011;59073;51.994;4.448;2024-02-15T13:48:06;2.25;;;2.23;;
71290;SDS011;59073;51.994;4.448;2024-02-15T13:50:33;2.27;;;2.26;;
71290;SDS011;59073;51.994;4.448;2024-02-15T13:52:58;2.27;;;2.26;;
71290;SDS011;59073;51.994;4.448;2024-02-15T13:55:25;2.11;;;2.11;;
71290;SDS011;59073;51.994;4.448;2024-02-15T13:57:51;1.92;;;1.92;;
71290;SDS011;59073;51.994;4.448;2024-02-15T14:00:18;2.10;;;2.09;;
71290;SDS011;59073;51.994;4.448;2024-02-15T14:02:48;2.21;;;2.19;;
71290;SDS011;59073;51.994;4.448;2024-02-15T14:05:14;2.19;;;2.17;;
71290;SDS011;59073;51.994;4.448;2024-02-15T14:07:42;2.04;;;2.02;;
71290;SDS011;59073;51.994;4.448;2024-02-15T14:10:08;2.09;;;2.07;;
71290;SDS011;59073;51.994;4.448;2024-02-15T14:12:34;2.50;;;2.46;;
71290;SDS011;59073;51.994;4.448;2024-02-15T14:15:00;2.31;;;2.26;;
71290;SDS011;59073;51.994;4.448;2024-02-15T14:17:26;2.22;;;2.15;;
71290;SDS011;59073;51.994;4.448;2024-02-15T14:19:53;2.17;;;2.09;;
71290;SDS011;59073;51.994;4.448;2024-02-15T14:22:18;2.78;;;2.66;;
71290;SDS011;59073;51.994;4.448;2024-02-15T14:24:45;2.50;;;2.37;;
71290;SDS011;59073;51.994;4.448;2024-02-15T14:27:11;2.30;;;2.22;;
71290;SDS011;59073;51.994;4.448;2024-02-15T14:29:37;2.50;;;2.44;;
71290;SDS011;59073;51.994;4.448;2024-02-15T14:32:10;2.26;;;2.18;;
71290;SDS011;59073;51.994;4.448;2024-02-15T14:34:55;2.06;;;1.98;;
71290;SDS011;59073;51.994;4.448;2024-02-15T14:37:21;2.08;;;2.01;;
71290;SDS011;59073;51.994;4.448;2024-02-15T14:39:47;2.14;;;2.06;;
71290;SDS011;59073;51.994;4.448;2024-02-15T14:42:12;2.10;;;2.03;;
71290;SDS011;59073;51.994;4.448;2024-02-15T14:44:39;1.94;;;1.89;;
71290;SDS011;59073;51.994;4.448;2024-02-15T14:47:04;2.17;;;2.13;;
71290;SDS011;59073;51.994;4.448;2024-02-15T14:49:30;1.95;;;1.92;;
71290;SDS011;59073;51.994;4.448;2024-02-15T14:51:56;2.12;;;2.09;;
71290;SDS011;59073;51.994;4.448;2024-02-15T14:54:21;2.06;;;2.03;;
71290;SDS011;59073;51.994;4.448;2024-02-15T14:56:47;1.87;;;1.84;;
71290;SDS011;59073;51.994;4.448;2024-02-15T14:59:13;2.40;;;2.35;;
71290;SDS011;59073;51.994;4.448;2024-02-15T15:01:40;1.98;;;1.94;;
71290;SDS011;59073;51.994;4.448;2024-02-15T15:04:06;2.42;;;2.39;;
71290;SDS011;59073;51.994;4.448;2024-02-15T15:06:33;1.90;;;1.87;;
71290;SDS011;59073;51.994;4.448;2024-02-15T15:09:17;2.24;;;2.20;;
71290;SDS011;59073;51.994;4.448;2024-02-15T15:12:01;1.93;;;1.93;;
71290;SDS011;59073;51.994;4.448;2024-02-15T15:14:45;2.16;;;2.11;;
71290;SDS011;59073;51.994;4.448;2024-02-15T15:17:11;2.21;;;2.21;;